Honomu, HI (96728)

9:25 AM HST on May 23, 2017 (GMT -1000)
Akaka Falls | | Change Station

Elev 1306 ft 19.85 °N, 155.15 °W | Updated 4 seconds ago

Partly Cloudy
Partly Cloudy
80.7 °F
Feels Like 83 °F
N
1.0
Wind Variable Wind from NE

Today
High -- | Low -- °F
--% Chance of Precip.
Yesterday
High -- | Low -- °F
Precip. -- in
Pressure 30.06 in
Visibility 10.0 miles
Clouds Scattered Clouds 3500 ft
Scattered Clouds 6000 ft
Mostly Cloudy 22000 ft
Heat Index 83 °F
Dew Point 67 °F
Humidity 63%
Rainfall 0.00 in
Snow Depth Not available.
5:42 AM 6:52 PM
Waning Crescent, 6% visible
METAR PHTO 231853Z 36005KT 10SM SCT035 SCT060 BKN220 27/17 A3006 RMK AO2 SLP178 T02670172
Pressure 30.06 in
Visibility 10.0 miles
Clouds Scattered Clouds 3500 ft
Scattered Clouds 6000 ft
Mostly Cloudy 22000 ft
Heat Index 83 °F
Dew Point 67 °F
Humidity 63%
Rainfall 0.00 in
Snow Depth Not available.
5:42 AM 6:52 PM
Waning Crescent, 6% visible
METAR PHTO 231853Z 36005KT 10SM SCT035 SCT060 BKN220 27/17 A3006 RMK AO2 SLP178 T02670172

Get Severe Weather Alerts

Thanks for signing up!

Be on the lookout for a verification email in your inbox.

You'll start receiving the daily forecast at 6 AM.

×

10-Day Weather Forecast

Almanac

Astronomy

May. 23, 2017 Rise Set
Actual Time
Civil Twilight
Nautical Twilight
Astronomical Twilight
Moon
Length of Visible Light
Length of Day
Tomorrow will be .
, % of the Moon is Illuminated

Today's Extremes

State Highs State Lows

Community

WunderPhotos

Category 6

Welcome to Category 6. This is the collective home for Weather Underground's featured writeups by Dr. Jeff Masters (right), Bob Henson (left), Chris Burt, and other regular contributors.

Nearby

Air Quality

  Air Quality AQ Index Pollutant
Not available.

Snow Depth

Station Depth Elevation

Earthquake Activity

City Distance Mag. Time & Date
Minimum magnitude displayed is 2.5.

Coastal Water Temperatures

Place Temperature

Stations

Nearby Weather Stations

Station Location Temp. Windchill Dew Point Humidity Wind Precip. Elev Updated Type
                   

Watches & Warnings

There are currently no watches in effect.